Medemborg — PJAG — position and weather

sailwx.info

Track history (hours):
 
Tides and Currents Weather Stations Pressure Air Temp Water Temp Dewpoint Dewpoint Depression Visibility Wind Speed Wind Dir Waves Ship Positions

Medemborg

Last reported at 2014-Nov-25 11:32 UTC. Time now 2014-Nov-26 04:06 UTC.
Position N 37°44' W 000°21'.

Length 135 m; draft 7.3 m.

Type: Cargo ship. MMSI: 306581000.

Date/timePositionNaut miles runAvg speedWind from/ knotsBaromVisibWave heightAir tempDewpointWater temp
2014-Nov-25 11:32N 37°44' W 000°21'2310.8
2014-Nov-25 09:24N 37°27' W 000°40'1011.7
2014-Nov-25 08:33N 37°20' W 000°49'22712.6
2014-Nov-24 14:33N 36°00' W 005°13'  
2014-Nov-20 20:23N 50°03' W 002°44'12512.7
2014-Nov-20 10:32N 50°35' E 000°25'1212.5
2014-Nov-20 09:33N 50°41' E 000°42'1212.2
2014-Nov-20 08:33N 50°48' E 000°57'1212.4
2014-Nov-20 07:33N 50°56' E 001°13'1414.2
2014-Nov-20 06:34N 51°05' E 001°30'1615.6
2014-Nov-20 05:34N 51°16' E 001°48'1414.2
2014-Nov-20 04:33N 51°28' E 001°60'1413.3
2014-Nov-20 03:31N 51°39' E 002°14'14812.3
2014-Nov-19 15:28N 53°37' E 004°39'2912.4
2014-Nov-19 13:08N 54°06' E 004°49'1113.1
2014-Nov-19 12:17N 54°15' E 004°59'29312.3
2014-Nov-18 12:33N 57°43' E 011°08'1313.0
2014-Nov-18 11:33N 57°38' E 011°31'6 5.7
2014-Nov-18 10:33N 57°36' E 011°41'0 0.0
2014-Nov-18 09:24N 57°36' E 011°41'0 0.0
2014-Nov-18 08:33N 57°36' E 011°41'0 0.0
2014-Nov-18 07:33N 57°36' E 011°41'0 0.0
2014-Nov-18 06:33N 57°36' E 011°41'0 0.0
2014-Nov-18 05:33N 57°36' E 011°41'0 0.0
2014-Nov-18 04:33N 57°36' E 011°41'0 0.0
2014-Nov-18 03:33N 57°36' E 011°41'0 0.0
2014-Nov-18 02:33N 57°36' E 011°41'0 0.0
2014-Nov-18 01:33N 57°36' E 011°41'0 0.0
2014-Nov-18 00:33N 57°36' E 011°41'0 0.0
2014-Nov-17 23:33N 57°36' E 011°41'0 0.0
2014-Nov-17 22:33N 57°36' E 011°41'0 0.0
2014-Nov-17 21:33N 57°36' E 011°41'0 0.0
2014-Nov-17 20:33N 57°36' E 011°41'0 0.0
2014-Nov-17 19:33N 57°36' E 011°41'0 0.3
2014-Nov-17 18:33N 57°36' E 011°41'1010.4
2014-Nov-17 17:33N 57°25' E 011°38'1111.4
2014-Nov-17 16:33N 57°14' E 011°40'6510.7
2014-Nov-17 10:30N 56°13' E 012°19'1314.2
2014-Nov-17 09:33N 56°04' E 012°38'1313.0
2014-Nov-17 08:33N 55°52' E 012°45'1212.4
2014-Nov-17 07:33N 55°40' E 012°42'1010.4
2014-Nov-17 06:34N 55°29' E 012°43'1010.4
2014-Nov-17 05:33N 55°19' E 012°42'10 9.9
2014-Nov-17 04:33N 55°16' E 012°58'1010.4
2014-Nov-17 03:33N 55°15' E 013°17'3410.1
2014-Nov-17 00:12N 55°14' E 014°16'610.0
2014-Nov-16 23:33N 55°19' E 014°23'10 9.9
2014-Nov-16 22:33N 55°27' E 014°34'1110.9
2014-Nov-16 21:33N 55°32' E 014°51'4711.8
2014-Nov-16 17:33N 55°55' E 016°04'1212.1
2014-Nov-16 16:33N 56°01' E 016°23'7710.9
2014-Nov-16 09:29N 57°10' E 017°27'1111.3
2014-Nov-16 08:33N 57°20' E 017°34'1111.1
2014-Nov-16 07:33N 57°30' E 017°42'  
Track history (hours):
 
Tides and Currents Weather Stations Pressure Air Temp Water Temp Dewpoint Dewpoint Depression Visibility Wind Speed Wind Dir Waves Ship Positions

Medemborg

Last reported at 2014-Nov-25 11:32 UTC. Time now 2014-Nov-26 04:06 UTC.
Position N 37°44' W 000°21'.

Length 135 m; draft 7.3 m.

Type: Cargo ship. MMSI: 306581000.

Date/timePositionNaut miles runAvg speedWind from/ knotsBaromVisibWave heightAir tempDewpointWater temp
2014-Nov-25 11:32N 37°44' W 000°21'2310.8
2014-Nov-25 09:24N 37°27' W 000°40'1011.7
2014-Nov-25 08:33N 37°20' W 000°49'22712.6
2014-Nov-24 14:33N 36°00' W 005°13'  
2014-Nov-20 20:23N 50°03' W 002°44'12512.7
2014-Nov-20 10:32N 50°35' E 000°25'1212.5
2014-Nov-20 09:33N 50°41' E 000°42'1212.2
2014-Nov-20 08:33N 50°48' E 000°57'1212.4
2014-Nov-20 07:33N 50°56' E 001°13'1414.2
2014-Nov-20 06:34N 51°05' E 001°30'1615.6
2014-Nov-20 05:34N 51°16' E 001°48'1414.2
2014-Nov-20 04:33N 51°28' E 001°60'1413.3
2014-Nov-20 03:31N 51°39' E 002°14'14812.3
2014-Nov-19 15:28N 53°37' E 004°39'2912.4
2014-Nov-19 13:08N 54°06' E 004°49'1113.1
2014-Nov-19 12:17N 54°15' E 004°59'29312.3
2014-Nov-18 12:33N 57°43' E 011°08'1313.0
2014-Nov-18 11:33N 57°38' E 011°31'6 5.7
2014-Nov-18 10:33N 57°36' E 011°41'0 0.0
2014-Nov-18 09:24N 57°36' E 011°41'0 0.0
2014-Nov-18 08:33N 57°36' E 011°41'0 0.0
2014-Nov-18 07:33N 57°36' E 011°41'0 0.0
2014-Nov-18 06:33N 57°36' E 011°41'0 0.0
2014-Nov-18 05:33N 57°36' E 011°41'0 0.0
2014-Nov-18 04:33N 57°36' E 011°41'0 0.0
2014-Nov-18 03:33N 57°36' E 011°41'0 0.0
2014-Nov-18 02:33N 57°36' E 011°41'0 0.0
2014-Nov-18 01:33N 57°36' E 011°41'0 0.0
2014-Nov-18 00:33N 57°36' E 011°41'0 0.0
2014-Nov-17 23:33N 57°36' E 011°41'0 0.0
2014-Nov-17 22:33N 57°36' E 011°41'0 0.0
2014-Nov-17 21:33N 57°36' E 011°41'0 0.0
2014-Nov-17 20:33N 57°36' E 011°41'0 0.0
2014-Nov-17 19:33N 57°36' E 011°41'0 0.3
2014-Nov-17 18:33N 57°36' E 011°41'1010.4
2014-Nov-17 17:33N 57°25' E 011°38'1111.4
2014-Nov-17 16:33N 57°14' E 011°40'6510.7
2014-Nov-17 10:30N 56°13' E 012°19'1314.2
2014-Nov-17 09:33N 56°04' E 012°38'1313.0
2014-Nov-17 08:33N 55°52' E 012°45'1212.4
2014-Nov-17 07:33N 55°40' E 012°42'1010.4
2014-Nov-17 06:34N 55°29' E 012°43'1010.4
2014-Nov-17 05:33N 55°19' E 012°42'10 9.9
2014-Nov-17 04:33N 55°16' E 012°58'1010.4
2014-Nov-17 03:33N 55°15' E 013°17'3410.1
2014-Nov-17 00:12N 55°14' E 014°16'610.0
2014-Nov-16 23:33N 55°19' E 014°23'10 9.9
2014-Nov-16 22:33N 55°27' E 014°34'1110.9
2014-Nov-16 21:33N 55°32' E 014°51'4711.8
2014-Nov-16 17:33N 55°55' E 016°04'1212.1
2014-Nov-16 16:33N 56°01' E 016°23'7710.9
2014-Nov-16 09:29N 57°10' E 017°27'1111.3
2014-Nov-16 08:33N 57°20' E 017°34'1111.1
2014-Nov-16 07:33N 57°30' E 017°42'  

Dump ship's entire track history